createdAt,value
2023-03-19T00:01:05.222Z,9.0625
2023-03-19T00:06:06.321Z,9
2023-03-19T00:11:07.226Z,8.875
2023-03-19T00:16:08.213Z,9.0625
2023-03-19T00:21:09.556Z,8.9375
2023-03-19T00:26:10.627Z,8.75
2023-03-19T00:31:11.678Z,8.9375
2023-03-19T00:36:12.791Z,8.8125
2023-03-19T00:41:13.657Z,8.8125
2023-03-19T00:46:14.690Z,8.6875
2023-03-19T00:51:15.653Z,8.625
2023-03-19T00:56:16.622Z,8.5625
2023-03-19T01:01:17.704Z,8.5
2023-03-19T01:06:18.487Z,8.4375
2023-03-19T01:11:19.536Z,8.4375
2023-03-19T01:16:20.280Z,8.4375
2023-03-19T01:21:21.505Z,8.3125
2023-03-19T01:26:22.545Z,8.3125
2023-03-19T01:31:23.602Z,8.1875
2023-03-19T01:36:24.538Z,8.1875
2023-03-19T01:41:25.271Z,8.1875
2023-03-19T01:46:26.391Z,8.125
2023-03-19T01:51:27.356Z,8.125
2023-03-19T01:56:28.311Z,7.9375
2023-03-19T02:01:29.208Z,8.125
2023-03-19T02:06:30.264Z,8.1875
2023-03-19T02:11:31.248Z,8.0625
2023-03-19T02:16:32.274Z,8
2023-03-19T02:21:33.242Z,7.875
2023-03-19T02:26:34.311Z,7.9375
2023-03-19T02:31:35.298Z,8
2023-03-19T02:36:36.402Z,8
2023-03-19T02:41:37.355Z,7.9375
2023-03-19T02:46:38.403Z,8
2023-03-19T02:51:39.302Z,8
2023-03-19T02:56:40.322Z,7.875
2023-03-19T03:01:41.399Z,7.875
2023-03-19T03:06:42.309Z,7.9375
2023-03-19T03:11:43.172Z,8
2023-03-19T03:16:44.091Z,7.9375
2023-03-19T03:21:45.015Z,8.1875
2023-03-19T03:26:46.012Z,8.1875
2023-03-19T03:31:47.109Z,8.1875
2023-03-19T03:36:47.930Z,8.25
2023-03-19T03:41:48.926Z,8.25
2023-03-19T03:46:49.639Z,8.125
2023-03-19T03:51:50.650Z,8.0625
2023-03-19T03:56:51.611Z,8.0625
2023-03-19T04:01:52.646Z,7.6875
2023-03-19T04:06:53.579Z,7.9375
2023-03-19T04:11:54.467Z,8
2023-03-19T04:16:55.458Z,8
2023-03-19T04:21:56.289Z,8.0625
2023-03-19T04:26:57.259Z,7.6875
2023-03-19T04:31:58.385Z,7.625
2023-03-19T04:36:59.500Z,7.8125
2023-03-19T04:42:00.488Z,7.8125
2023-03-19T04:47:01.550Z,7.625
2023-03-19T04:52:02.496Z,7.4375
2023-03-19T04:57:03.527Z,7.25
2023-03-19T05:02:04.431Z,7.4375
2023-03-19T05:07:05.480Z,7.4375
2023-03-19T05:12:06.384Z,7.375
2023-03-19T05:17:07.276Z,7.3125
2023-03-19T05:22:08.158Z,7.25
2023-03-19T05:27:09.192Z,7.375
2023-03-19T05:32:10.092Z,7.3125
2023-03-19T05:37:12.496Z,7.5625
2023-03-19T05:42:13.688Z,7.75
2023-03-19T05:47:14.551Z,7.875
2023-03-19T05:52:16.089Z,7.875
2023-03-19T05:57:16.792Z,7.9375
2023-03-19T06:02:17.821Z,8.0625
2023-03-19T06:07:18.838Z,8.3125
2023-03-19T06:12:19.822Z,8.4375
2023-03-19T06:17:20.859Z,8.625
2023-03-19T06:22:21.796Z,8.6875
2023-03-19T06:27:22.843Z,8.8125
2023-03-19T06:32:23.712Z,9.3125
2023-03-19T06:37:24.457Z,9.5625
2023-03-19T06:42:25.383Z,9.1875
2023-03-19T06:47:26.248Z,8.875
2023-03-19T06:52:27.625Z,8.3125
2023-03-19T06:57:28.082Z,8.25
2023-03-19T07:02:29.053Z,8
2023-03-19T07:07:30.300Z,7.9375
2023-03-19T07:12:31.465Z,7.9375
2023-03-19T07:17:32.388Z,7.875
2023-03-19T07:22:33.452Z,7.875
2023-03-19T07:27:34.545Z,8
2023-03-19T07:32:35.543Z,7.8125
2023-03-19T07:37:36.460Z,7.9375
2023-03-19T07:42:37.352Z,7.875
2023-03-19T07:47:38.111Z,8.1875
2023-03-19T07:52:39.273Z,8.1875
2023-03-19T07:57:40.283Z,8
2023-03-19T08:02:41.193Z,7.9375
2023-03-19T08:07:42.162Z,8.25
2023-03-19T08:12:43.182Z,8.375
2023-03-19T08:17:44.275Z,8.4375
2023-03-19T08:22:45.110Z,8.5625
2023-03-19T08:27:46.090Z,8.375
2023-03-19T08:32:47.134Z,8.3125
2023-03-19T08:37:49.464Z,8
2023-03-19T08:42:50.483Z,8.1875
2023-03-19T08:47:51.251Z,8.1875
2023-03-19T08:52:52.707Z,8.25
2023-03-19T08:57:53.330Z,8.1875
2023-03-19T09:02:54.174Z,8.25
2023-03-19T09:07:55.133Z,8.375
2023-03-19T09:12:56.075Z,8.5
2023-03-19T09:17:56.941Z,8.6875
2023-03-19T09:22:57.932Z,8.6875
2023-03-19T09:27:58.911Z,8.5
2023-03-19T09:32:59.739Z,9
2023-03-19T09:38:00.788Z,9.25
2023-03-19T09:43:01.796Z,10.0625
2023-03-19T09:48:02.678Z,10.25
2023-03-19T09:53:04.146Z,10.125
2023-03-19T09:58:04.651Z,10.375
2023-03-19T10:03:05.430Z,10.3125
2023-03-19T10:08:06.391Z,10.875
2023-03-19T10:13:07.436Z,10.875
2023-03-19T10:18:08.409Z,10.6875
2023-03-19T10:23:09.396Z,10.9375
2023-03-19T10:28:10.422Z,11
2023-03-19T10:33:11.460Z,11.375
2023-03-19T10:38:12.212Z,11.875
2023-03-19T10:43:13.339Z,11.9375
2023-03-19T10:48:14.682Z,12
2023-03-19T10:53:15.357Z,11.9375
2023-03-19T10:58:16.464Z,11.9375
2023-03-19T11:03:17.218Z,11.9375
2023-03-19T11:08:32.973Z,12.0625
2023-03-19T11:13:19.126Z,12.1875
2023-03-19T11:18:20.214Z,12.5
2023-03-19T11:23:21.037Z,12.625
2023-03-19T11:28:24.231Z,12.4375
2023-03-19T11:33:23.122Z,12.1875
2023-03-19T11:38:23.971Z,12.3125
2023-03-19T11:43:24.886Z,12.5625
2023-03-19T11:48:25.767Z,12.5
2023-03-19T11:53:26.664Z,12.5625
2023-03-19T11:58:27.613Z,12.6875
2023-03-19T12:03:28.589Z,12.625
2023-03-19T12:08:29.683Z,12.6875
2023-03-19T12:13:30.648Z,12.8125
2023-03-19T12:18:31.696Z,12.875
2023-03-19T12:23:34.699Z,13.0625
2023-03-19T12:28:33.617Z,13.0625
2023-03-19T12:33:34.429Z,13.25
2023-03-19T12:38:35.344Z,13.5625
2023-03-19T12:43:36.375Z,13.375
2023-03-19T12:48:37.452Z,13.5625
2023-03-19T12:53:38.781Z,13.8125
2023-03-19T12:58:39.300Z,14
2023-03-19T13:03:40.236Z,14.3125
2023-03-19T13:08:41.185Z,14.3125
2023-03-19T13:13:42.054Z,14.1875
2023-03-19T13:18:42.858Z,14.1875
2023-03-19T13:23:43.833Z,14.5625
2023-03-19T13:28:46.602Z,14.875
2023-03-19T13:33:45.664Z,15
2023-03-19T13:38:46.610Z,14.875
2023-03-19T13:43:47.558Z,14.75
2023-03-19T13:48:48.520Z,15
2023-03-19T13:53:49.955Z,15.25
2023-03-19T13:58:50.410Z,15.3125
2023-03-19T14:03:51.346Z,15.125
2023-03-19T14:08:52.128Z,15.375
2023-03-19T14:13:53.218Z,15.75
2023-03-19T14:18:54.192Z,15.8125
2023-03-19T14:23:55.135Z,15.875
2023-03-19T14:28:55.755Z,16.25
2023-03-19T14:33:56.637Z,16.125
2023-03-19T14:38:57.674Z,15.9375
2023-03-19T14:43:58.663Z,15.8125
2023-03-19T14:48:59.588Z,15.75
2023-03-19T14:54:00.658Z,15.625
2023-03-19T14:59:01.719Z,15.125
2023-03-19T15:04:02.413Z,15
2023-03-19T15:09:03.315Z,14.4375
2023-03-19T15:14:04.291Z,14.625
2023-03-19T15:19:05.119Z,14.625
2023-03-19T15:24:06.390Z,14.75
2023-03-19T15:29:12.003Z,14.5625
2023-03-19T15:34:08.692Z,14.5625
2023-03-19T15:39:09.697Z,15
2023-03-19T15:44:10.692Z,14.875
2023-03-19T15:49:11.529Z,14.8125
2023-03-19T15:54:12.609Z,15.3125
2023-03-19T15:59:13.601Z,15.1875
2023-03-19T16:04:14.485Z,15.125
2023-03-19T16:09:15.546Z,15.1875
2023-03-19T16:14:16.351Z,15
2023-03-19T16:19:17.296Z,15.125
2023-03-19T16:24:18.426Z,14.625
2023-03-19T16:29:19.158Z,14.0625
2023-03-19T16:34:19.998Z,13.875
2023-03-19T16:39:20.947Z,13.5
2023-03-19T16:44:22.004Z,13.1875
2023-03-19T16:49:23.248Z,12.875
2023-03-19T16:54:24.067Z,13.0625
2023-03-19T16:59:25.420Z,13.5
2023-03-19T17:04:26.313Z,13.25
2023-03-19T17:09:27.271Z,12.875
2023-03-19T17:14:28.220Z,12.625
2023-03-19T17:19:29.057Z,12.5625
2023-03-19T17:24:30.072Z,12.125
2023-03-19T17:29:31.105Z,11.8125
2023-03-19T17:34:32.382Z,11.8125
2023-03-19T17:39:33.364Z,11.6875
2023-03-19T17:44:34.323Z,11.625
2023-03-19T17:49:35.257Z,11.5
2023-03-19T17:54:36.611Z,11.3125
2023-03-19T17:59:37.381Z,11.375
2023-03-19T18:04:38.472Z,11.3125
2023-03-19T18:09:39.292Z,11.5
2023-03-19T18:14:40.289Z,11.4375
2023-03-19T18:19:41.112Z,11.375
2023-03-19T18:24:42.376Z,11.375
2023-03-19T18:29:43.163Z,11.4375
2023-03-19T18:34:44.174Z,11.25
2023-03-19T18:39:45.209Z,11.125
2023-03-19T18:49:47.976Z,11.0625
2023-03-19T18:54:48.913Z,11.125
2023-03-19T18:59:49.644Z,11.0625
2023-03-19T19:04:50.758Z,11.3125
2023-03-19T19:09:51.581Z,11.3125
2023-03-19T19:14:52.397Z,11.25
2023-03-19T19:19:53.380Z,11.3125
2023-03-19T19:24:54.375Z,10.9375
2023-03-19T19:29:55.503Z,11.25
2023-03-19T19:34:56.341Z,11.25
2023-03-19T19:39:57.394Z,11.0625
2023-03-19T19:44:58.455Z,11.375
2023-03-19T19:50:06.412Z,11.4375
2023-03-19T19:55:08.882Z,11.5
2023-03-19T20:00:11.873Z,11.5
2023-03-19T20:05:13.603Z,11.625
2023-03-19T20:10:15.971Z,11.5625
2023-03-19T20:15:17.047Z,11.5
2023-03-19T20:20:20.493Z,11.4375
2023-03-19T20:25:21.743Z,11.5
2023-03-19T20:30:22.545Z,11.5625
2023-03-19T20:35:23.664Z,11.5
2023-03-19T20:40:24.434Z,11.5625
2023-03-19T20:45:25.670Z,11.5625
2023-03-19T20:50:26.721Z,11.3125
2023-03-19T20:55:27.766Z,11.5625
2023-03-19T21:00:28.689Z,11.5625
2023-03-19T21:05:29.716Z,11.5625
2023-03-19T21:10:30.671Z,11.5
2023-03-19T21:15:31.732Z,11.3125
2023-03-19T21:20:32.993Z,10.875
2023-03-19T21:25:34.215Z,11.125
2023-03-19T21:30:34.785Z,11.1875
2023-03-19T21:35:35.976Z,11
2023-03-19T21:40:36.717Z,11.125
2023-03-19T21:45:37.819Z,11.0625
2023-03-19T21:50:38.530Z,11
2023-03-19T21:55:39.899Z,10.1875
2023-03-19T22:00:40.550Z,11
2023-03-19T22:05:41.535Z,11
2023-03-19T22:10:42.285Z,10.9375
2023-03-19T22:15:43.257Z,10.75
2023-03-19T22:20:44.450Z,10.625
2023-03-19T22:25:45.518Z,10.625
2023-03-19T22:30:46.760Z,10.4375
2023-03-19T22:35:47.645Z,10.75
2023-03-19T22:40:48.565Z,10.6875
2023-03-19T22:45:49.503Z,10.375
2023-03-19T22:50:52.325Z,10.4375
2023-03-19T22:55:53.353Z,10.3125
2023-03-19T23:00:54.270Z,10.25
2023-03-19T23:05:55.296Z,10.3125
2023-03-19T23:10:56.177Z,10.25
2023-03-19T23:15:57.019Z,10.25
2023-03-19T23:20:58.089Z,10.1875
2023-03-19T23:25:58.876Z,10.125
2023-03-19T23:30:59.825Z,10.0625
2023-03-19T23:36:00.909Z,10.0625
2023-03-19T23:41:01.872Z,10.125
2023-03-19T23:46:03.063Z,10.125
2023-03-19T23:51:04.032Z,10.125
2023-03-19T23:56:05.142Z,10
